Time;durP1;ratioP1;P1;durP2;ratioP2;P2;SDS_P1;SDS_P2;PMS_P1;PMS_P2;Temp;Humidity;BMP_temperature;BMP_pressure;BME280_temperature;BME280_humidity;BME280_pressure;Samples;Min_cycle;Max_cycle;Signal;HPM_P1;HPM_P2
2023/01/08 00:02:13;;;;;;;9.88;3.28;;;18.90;70.20;;;;;;4416585;32;20492;-68
2023/01/08 00:04:39;;;;;;;11.27;3.00;;;18.90;70.20;;;;;;4416558;32;20079;-68
2023/01/08 00:07:04;;;;;;;11.40;2.67;;;18.90;70.30;;;;;;4417567;32;20079;-68
2023/01/08 00:09:30;;;;;;;8.25;3.05;;;18.90;70.30;;;;;;4415398;32;20075;-68
2023/01/08 00:11:56;;;;;;;8.75;2.60;;;18.90;70.30;;;;;;4416063;32;20094;-68
2023/01/08 00:14:22;;;;;;;10.68;3.15;;;18.90;70.30;;;;;;4420783;32;20089;-68
2023/01/08 00:16:50;;;;;;;9.75;2.80;;;18.80;70.20;;;;;;4430162;32;20117;-68
2023/01/08 00:19:17;;;;;;;10.60;2.75;;;18.80;70.20;;;;;;4429943;32;20125;-67
2023/01/08 00:21:43;;;;;;;8.77;2.50;;;18.80;70.20;;;;;;4430194;32;20212;-68
2023/01/08 00:24:09;;;;;;;7.07;2.70;;;18.80;70.20;;;;;;4429853;32;20232;-68
2023/01/08 00:26:35;;;;;;;8.75;2.47;;;18.80;70.20;;;;;;4430148;32;20189;-68
2023/01/08 00:29:01;;;;;;;9.52;2.72;;;18.80;70.20;;;;;;4429514;32;20444;-68
2023/01/08 00:31:28;;;;;;;6.97;2.50;;;18.80;70.20;;;;;;4430164;32;20093;-68
2023/01/08 00:33:54;;;;;;;7.88;2.35;;;18.80;70.30;;;;;;4429874;32;20118;-68
2023/01/08 00:36:20;;;;;;;8.65;2.60;;;18.80;70.20;;;;;;4429740;32;20436;-68
2023/01/08 00:38:46;;;;;;;7.18;2.45;;;18.80;70.20;;;;;;4429888;32;20160;-68
2023/01/08 00:41:16;;;;;;;7.55;2.53;;;18.80;70.30;;;;;;4429600;32;20066;-68
2023/01/08 00:43:42;;;;;;;5.95;2.00;;;18.80;70.30;;;;;;4429793;32;20086;-68
2023/01/08 00:46:09;;;;;;;7.88;2.28;;;18.80;70.20;;;;;;4429571;32;20598;-68
2023/01/08 00:48:37;;;;;;;7.75;2.40;;;18.70;70.20;;;;;;4429644;32;20094;-68
2023/01/08 00:51:04;;;;;;;6.68;2.50;;;18.70;70.10;;;;;;4429504;32;20543;-68
2023/01/08 00:53:30;;;;;;;5.25;2.25;;;18.70;70.20;;;;;;4429581;32;20602;-68
2023/01/08 00:56:01;;;;;;;7.85;2.40;;;18.70;70.10;;;;;;4429771;32;20074;-68
2023/01/08 00:58:27;;;;;;;10.70;2.40;;;18.70;70.20;;;;;;4429380;32;20079;-68
2023/01/08 01:00:53;;;;;;;6.57;2.00;;;18.70;70.20;;;;;;4429004;32;20082;-68
2023/01/08 01:03:19;;;;;;;9.18;2.60;;;18.70;70.20;;;;;;4415574;32;20066;-68
2023/01/08 01:05:44;;;;;;;6.35;1.90;;;18.70;70.20;;;;;;4429868;32;20114;-68
2023/01/08 01:08:10;;;;;;;5.38;1.98;;;18.70;70.20;;;;;;4429656;32;20102;-68
2023/01/08 01:10:38;;;;;;;5.65;2.13;;;18.70;70.20;;;;;;4429333;32;20090;-68
2023/01/08 01:13:04;;;;;;;9.07;2.60;;;18.70;70.20;;;;;;4429563;32;20070;-68
2023/01/08 01:15:30;;;;;;;5.85;1.75;;;18.60;70.20;;;;;;4429214;32;20412;-68
2023/01/08 01:17:56;;;;;;;5.00;1.98;;;18.60;70.10;;;;;;4429572;32;20082;-68
2023/01/08 01:20:22;;;;;;;5.50;2.03;;;18.60;70.20;;;;;;4429265;32;20082;-68
2023/01/08 01:22:48;;;;;;;5.53;1.85;;;18.60;70.10;;;;;;4415736;32;20089;-68
2023/01/08 01:25:15;;;;;;;6.13;1.90;;;18.60;70.10;;;;;;4429361;32;20196;-68
2023/01/08 01:27:59;;;;;;;5.55;1.73;;;18.60;70.10;;;;;;4429447;32;20216;-68
2023/01/08 01:30:25;;;;;;;6.00;2.00;;;18.60;70.10;;;;;;4428909;32;20112;-68
2023/01/08 01:32:51;;;;;;;7.68;1.90;;;18.60;70.20;;;;;;4428977;32;20102;-68
2023/01/08 01:35:16;;;;;;;5.57;1.95;;;18.60;70.10;;;;;;4425391;32;20401;-68
2023/01/08 01:37:42;;;;;;;6.63;2.22;;;18.60;70.10;;;;;;4414829;32;20106;-68
2023/01/08 01:40:09;;;;;;;4.95;1.98;;;18.60;70.10;;;;;;4413374;32;20095;-68
2023/01/08 01:42:42;;;;;;;6.07;2.20;;;18.60;70.10;;;;;;4413568;32;20083;-68
2023/01/08 01:45:21;;;;;;;5.57;2.03;;;18.60;70.10;;;;;;4412650;32;20094;-68
2023/01/08 01:47:50;;;;;;;5.20;2.15;;;18.60;70.10;;;;;;4416592;32;20503;-69
2023/01/08 01:50:24;;;;;;;5.38;1.73;;;18.60;70.10;;;;;;4414215;32;20394;-68
2023/01/08 01:53:02;;;;;;;4.57;1.88;;;18.60;70.10;;;;;;4426253;32;20122;-68
2023/01/08 01:55:29;;;;;;;4.45;1.67;;;18.50;70.10;;;;;;4429187;32;20092;-68
2023/01/08 01:58:15;;;;;;;4.25;1.52;;;18.50;70.10;;;;;;4429067;32;20090;-68
2023/01/08 02:00:42;;;;;;;6.43;1.77;;;18.50;70.00;;;;;;4419250;32;20097;-68
2023/01/08 02:03:13;;;;;;;3.88;1.50;;;18.50;70.10;;;;;;4432189;32;20063;-68
2023/01/08 02:05:59;;;;;;;5.57;1.77;;;18.50;70.10;;;;;;4432290;32;20082;-68
2023/01/08 02:09:03;;;;;;;3.78;1.70;;;18.50;70.10;;;;;;4418174;32;20074;-68
2023/01/08 02:14:56;;;;;;;3.45;1.60;;;18.50;70.10;;;;;;4424459;32;20527;-68
2023/01/08 02:18:00;;;;;;;6.30;1.80;;;18.50;70.10;;;;;;4417852;32;20105;-68
2023/01/08 02:20:50;;;;;;;5.32;1.67;;;18.50;70.10;;;;;;4431785;32;20234;-68
2023/01/08 02:23:45;;;;;;;4.75;1.88;;;18.50;70.10;;;;;;4431541;32;20070;-68
2023/01/08 02:26:34;;;;;;;5.00;1.50;;;18.50;70.10;;;;;;4431961;32;20460;-68
2023/01/08 02:29:08;;;;;;;4.68;1.60;;;18.40;69.90;;;;;;4425368;32;20228;-68
2023/01/08 02:31:38;;;;;;;3.80;1.75;;;18.40;70.00;;;;;;4431749;32;20085;-68
2023/01/08 02:34:07;;;;;;;4.93;1.80;;;18.40;70.00;;;;;;4431678;32;20438;-68
2023/01/08 02:36:34;;;;;;;5.75;1.50;;;18.40;70.00;;;;;;4429834;32;20673;-68
2023/01/08 02:39:31;;;;;;;5.00;1.83;;;18.40;70.00;;;;;;4431485;32;20179;-68
2023/01/08 02:42:00;;;;;;;6.68;1.50;;;18.40;69.90;;;;;;4423860;32;20102;-68
2023/01/08 02:44:49;;;;;;;4.28;1.42;;;18.40;70.00;;;;;;4431412;32;20084;-69
2023/01/08 02:47:27;;;;;;;2.45;1.40;;;18.40;69.90;;;;;;4431555;32;20091;-68
2023/01/08 02:50:26;;;;;;;3.38;1.45;;;18.40;70.00;;;;;;4417691;32;20066;-69
2023/01/08 02:53:02;;;;;;;3.88;1.50;;;18.40;70.00;;;;;;4417205;32;20408;-68
2023/01/08 02:55:36;;;;;;;3.22;1.30;;;18.40;70.00;;;;;;4418383;32;20099;-68
2023/01/08 02:58:04;;;;;;;6.68;1.70;;;18.40;70.00;;;;;;4418391;32;20094;-68
2023/01/08 03:00:31;;;;;;;2.85;1.20;;;18.40;70.00;;;;;;4416276;32;20109;-69
2023/01/08 03:03:11;;;;;;;3.45;1.25;;;18.40;69.90;;;;;;4415874;32;20109;-68
2023/01/08 03:05:39;;;;;;;4.80;1.40;;;18.40;69.90;;;;;;4415577;32;20389;-68
2023/01/08 03:08:06;;;;;;;4.03;1.30;;;18.40;69.90;;;;;;4417166;32;20237;-68
2023/01/08 03:10:34;;;;;;;3.53;1.33;;;18.40;69.90;;;;;;4417538;32;20075;-69
2023/01/08 03:13:23;;;;;;;3.58;1.40;;;18.30;69.80;;;;;;4420576;32;20150;-68
2023/01/08 03:15:56;;;;;;;4.57;1.58;;;18.40;69.90;;;;;;4416745;32;20078;-68
2023/01/08 03:18:33;;;;;;;4.05;1.40;;;18.30;69.90;;;;;;4415973;32;20499;-68
2023/01/08 03:21:02;;;;;;;2.78;1.40;;;18.30;69.90;;;;;;4416229;32;20146;-69
2023/01/08 03:23:30;;;;;;;3.35;1.25;;;18.30;69.80;;;;;;4415151;32;20187;-68
2023/01/08 03:26:05;;;;;;;3.83;1.58;;;18.30;69.90;;;;;;4415366;32;20556;-68
2023/01/08 03:28:41;;;;;;;4.65;1.25;;;18.30;69.90;;;;;;4417495;32;20087;-69
2023/01/08 03:31:08;;;;;;;4.05;1.45;;;18.30;69.80;;;;;;4416354;32;20083;-68
2023/01/08 03:33:35;;;;;;;3.15;1.15;;;18.30;69.90;;;;;;4416846;32;20088;-69
2023/01/08 03:36:03;;;;;;;2.85;1.40;;;18.30;69.90;;;;;;4424932;32;20240;-68
2023/01/08 03:38:39;;;;;;;4.70;1.67;;;18.20;69.80;;;;;;4430588;32;20532;-68
2023/01/08 03:41:12;;;;;;;4.78;1.52;;;18.20;69.80;;;;;;4430766;32;20105;-68
2023/01/08 03:43:38;;;;;;;3.28;1.25;;;18.20;69.90;;;;;;4430602;32;20074;-68
2023/01/08 03:46:10;;;;;;;3.60;1.75;;;18.20;70.00;;;;;;4430719;32;20153;-68
2023/01/08 03:48:37;;;;;;;3.97;1.40;;;18.20;70.00;;;;;;4430602;32;20416;-68
2023/01/08 03:51:06;;;;;;;3.65;1.30;;;18.20;70.10;;;;;;4430611;32;20089;-68
2023/01/08 03:53:33;;;;;;;2.75;1.10;;;18.20;70.10;;;;;;4430514;32;20092;-70
2023/01/08 03:55:59;;;;;;;4.93;1.33;;;18.20;70.10;;;;;;4430687;32;20078;-68
2023/01/08 03:58:25;;;;;;;3.33;1.17;;;18.20;70.10;;;;;;4430496;32;20626;-68
2023/01/08 04:00:51;;;;;;;3.50;1.23;;;18.20;70.10;;;;;;4430243;32;20586;-68
2023/01/08 04:03:17;;;;;;;2.85;1.30;;;18.20;70.20;;;;;;4430614;32;20097;-68
2023/01/08 04:05:43;;;;;;;3.40;1.30;;;18.10;70.20;;;;;;4430313;32;20424;-68
2023/01/08 04:08:09;;;;;;;2.72;1.20;;;18.10;70.10;;;;;;4430387;32;20094;-68
2023/01/08 04:10:37;;;;;;;3.03;1.17;;;18.20;70.20;;;;;;4430213;32;20086;-68
2023/01/08 04:13:03;;;;;;;2.50;1.50;;;18.10;70.80;;;;;;4430657;32;20082;-68
2023/01/08 04:15:29;;;;;;;3.10;1.58;;;18.10;70.20;;;;;;4416506;32;20078;-68
2023/01/08 04:17:54;;;;;;;3.70;1.20;;;18.10;70.20;;;;;;4430177;32;20103;-68
2023/01/08 04:20:20;;;;;;;1.83;0.90;;;18.10;70.20;;;;;;4430304;32;20172;-68
2023/01/08 04:22:46;;;;;;;2.17;1.25;;;18.10;70.20;;;;;;4430050;32;20058;-68
2023/01/08 04:25:14;;;;;;;3.35;1.20;;;18.10;70.10;;;;;;4429982;32;20228;-68
2023/01/08 04:27:40;;;;;;;2.75;1.00;;;18.10;70.20;;;;;;4429946;32;20152;-68
2023/01/08 04:30:08;;;;;;;2.10;1.25;;;18.10;70.20;;;;;;4430133;32;20079;-68
2023/01/08 04:32:34;;;;;;;2.05;0.93;;;18.10;70.20;;;;;;4429964;32;20082;-69
2023/01/08 04:35:00;;;;;;;2.15;1.00;;;18.00;70.10;;;;;;4430119;32;20073;-68
2023/01/08 04:37:26;;;;;;;3.92;1.20;;;18.00;70.20;;;;;;4438650;32;20137;-68
2023/01/08 04:39:53;;;;;;;2.13;1.10;;;18.10;70.20;;;;;;4430140;32;20070;-68
2023/01/08 04:42:19;;;;;;;3.08;1.20;;;18.10;70.20;;;;;;4429977;32;20168;-68
2023/01/08 04:44:44;;;;;;;2.65;1.17;;;18.00;70.10;;;;;;4429831;32;20089;-70
2023/01/08 04:47:10;;;;;;;3.58;1.35;;;18.00;70.20;;;;;;4429765;32;20149;-68
2023/01/08 04:49:36;;;;;;;2.33;1.15;;;18.00;70.10;;;;;;4429844;32;20059;-68
2023/01/08 04:52:02;;;;;;;3.30;1.05;;;18.00;70.10;;;;;;4429701;32;20531;-67
2023/01/08 04:54:33;;;;;;;2.65;1.27;;;18.00;70.10;;;;;;4430039;32;20082;-68
2023/01/08 04:56:59;;;;;;;2.38;1.00;;;18.00;70.20;;;;;;4429639;32;20113;-68
2023/01/08 04:59:25;;;;;;;3.22;0.80;;;18.00;70.20;;;;;;4429525;32;20253;-68
2023/01/08 05:01:51;;;;;;;1.83;0.98;;;18.00;70.10;;;;;;4429358;32;20106;-68
2023/01/08 05:04:21;;;;;;;2.28;1.17;;;18.00;70.10;;;;;;4429690;32;20552;-68
2023/01/08 05:06:50;;;;;;;3.60;1.17;;;18.00;70.20;;;;;;4411884;32;20165;-68
2023/01/08 05:09:16;;;;;;;3.17;1.15;;;18.00;70.20;;;;;;4413299;32;20074;-68
2023/01/08 05:11:42;;;;;;;3.95;1.40;;;18.00;70.20;;;;;;4414885;32;20122;-68
2023/01/08 05:14:08;;;;;;;2.63;1.00;;;18.00;70.20;;;;;;4418476;32;20507;-69
2023/01/08 05:16:34;;;;;;;2.13;1.00;;;17.90;70.20;;;;;;4414210;32;20094;-68
2023/01/08 05:19:01;;;;;;;2.45;0.90;;;17.90;70.20;;;;;;4416764;32;20551;-68
2023/01/08 05:21:27;;;;;;;2.40;0.93;;;17.90;70.10;;;;;;4413627;32;20082;-68
2023/01/08 05:23:52;;;;;;;3.53;1.00;;;17.90;70.20;;;;;;4413275;32;20496;-69
2023/01/08 05:26:18;;;;;;;3.95;1.25;;;17.90;70.20;;;;;;4415066;32;20156;-68
2023/01/08 05:28:45;;;;;;;2.08;1.00;;;17.90;70.20;;;;;;4422691;32;20436;-68
2023/01/08 05:31:11;;;;;;;1.70;0.95;;;17.90;70.20;;;;;;4421703;32;20117;-68
2023/01/08 05:33:37;;;;;;;2.80;1.10;;;17.90;70.20;;;;;;4429147;32;20070;-68
2023/01/08 05:36:08;;;;;;;2.30;1.10;;;17.90;70.20;;;;;;4428624;32;20074;-68
2023/01/08 05:38:34;;;;;;;1.83;0.95;;;17.90;70.20;;;;;;4429463;32;20093;-68
2023/01/08 05:41:00;;;;;;;2.25;0.93;;;17.90;70.20;;;;;;4429141;32;20098;-68
2023/01/08 05:43:27;;;;;;;3.30;0.90;;;17.90;70.20;;;;;;4429210;32;20070;-68
2023/01/08 05:45:53;;;;;;;2.78;1.15;;;17.80;70.20;;;;;;4428348;32;20067;-69
2023/01/08 05:48:18;;;;;;;1.50;0.95;;;17.90;70.30;;;;;;4417813;32;20089;-69
2023/01/08 05:50:47;;;;;;;2.70;1.20;;;17.80;70.10;;;;;;4414909;32;20700;-67
2023/01/08 05:53:13;;;;;;;2.90;1.00;;;17.80;70.20;;;;;;4413872;32;20234;-68
2023/01/08 05:55:39;;;;;;;2.22;0.90;;;17.80;70.20;;;;;;4414169;32;20081;-69
2023/01/08 05:58:05;;;;;;;1.95;1.10;;;17.80;70.20;;;;;;4413040;32;20083;-68
2023/01/08 06:00:32;;;;;;;2.50;1.20;;;17.80;70.20;;;;;;4412281;32;20177;-68
2023/01/08 06:02:58;;;;;;;2.28;0.93;;;17.80;70.20;;;;;;4416631;32;20087;-68
2023/01/08 06:05:24;;;;;;;2.53;0.90;;;17.80;70.20;;;;;;4415314;32;20133;-68
2023/01/08 06:07:50;;;;;;;2.72;0.98;;;17.80;71.10;;;;;;4416120;32;20101;-68
2023/01/08 06:10:16;;;;;;;2.75;1.00;;;17.80;70.20;;;;;;4413633;32;20091;-68
2023/01/08 06:12:42;;;;;;;2.90;1.00;;;17.80;70.20;;;;;;4418180;32;20177;-68
2023/01/08 06:15:10;;;;;;;1.58;0.80;;;17.80;70.20;;;;;;4416693;32;20567;-72
2023/01/08 06:17:36;;;;;;;2.58;0.80;;;17.80;70.20;;;;;;4414798;32;20062;-68
2023/01/08 06:20:02;;;;;;;3.33;1.30;;;17.80;70.20;;;;;;4420711;32;20516;-68
2023/01/08 06:22:28;;;;;;;1.27;0.90;;;17.80;70.20;;;;;;4428769;32;20161;-69
2023/01/08 06:24:54;;;;;;;1.30;0.82;;;17.80;70.20;;;;;;4430085;32;20240;-68
2023/01/08 06:27:20;;;;;;;2.17;0.93;;;17.80;70.20;;;;;;4428128;32;20075;-68
2023/01/08 06:29:46;;;;;;;1.00;0.70;;;17.80;70.20;;;;;;4416194;32;20454;-68
2023/01/08 06:32:12;;;;;;;1.98;1.05;;;17.70;70.20;;;;;;4416637;32;20505;-68
2023/01/08 06:34:38;;;;;;;1.77;0.90;;;17.70;70.20;;;;;;4415107;32;20165;-68
2023/01/08 06:37:04;;;;;;;1.90;0.77;;;17.70;70.20;;;;;;4416108;32;20078;-68
2023/01/08 06:39:30;;;;;;;1.30;0.80;;;17.70;70.20;;;;;;4417186;32;20280;-67
2023/01/08 06:41:56;;;;;;;1.63;0.70;;;17.70;70.20;;;;;;4416063;32;20109;-68
2023/01/08 06:44:22;;;;;;;2.42;0.85;;;17.70;70.20;;;;;;4414465;32;20516;-68
2023/01/08 06:46:48;;;;;;;2.63;0.70;;;17.70;70.30;;;;;;4415166;32;20098;-68
2023/01/08 06:49:16;;;;;;;2.90;0.90;;;17.70;70.20;;;;;;4417682;32;20518;-68
2023/01/08 06:51:42;;;;;;;1.92;0.63;;;17.70;70.20;;;;;;4416310;32;20353;-68
2023/01/08 06:54:08;;;;;;;1.42;0.80;;;17.70;70.20;;;;;;4415464;32;20542;-68
2023/01/08 06:56:37;;;;;;;2.00;0.90;;;17.70;70.20;;;;;;4415183;32;20098;-68
2023/01/08 06:59:03;;;;;;;1.20;0.70;;;17.70;70.20;;;;;;4408359;32;20154;-69
2023/01/08 07:01:29;;;;;;;1.70;0.85;;;17.70;70.20;;;;;;4416252;32;20063;-68
2023/01/08 07:03:55;;;;;;;1.92;0.90;;;17.70;70.20;;;;;;4417480;32;20078;-70
2023/01/08 07:06:28;;;;;;;1.60;0.90;;;17.70;70.20;;;;;;4423474;32;20401;-68
2023/01/08 07:08:53;;;;;;;2.38;0.63;;;17.60;70.20;;;;;;4431110;32;20567;-68
2023/01/08 07:11:19;;;;;;;1.45;0.80;;;17.70;70.20;;;;;;4431179;32;20137;-68
2023/01/08 07:13:45;;;;;;;1.23;0.70;;;17.70;70.30;;;;;;4430924;32;20078;-68
2023/01/08 07:16:14;;;;;;;2.40;0.90;;;17.60;70.20;;;;;;4431078;32;20136;-68
2023/01/08 07:18:41;;;;;;;2.30;0.80;;;17.60;70.20;;;;;;4430986;32;20168;-68
2023/01/08 07:21:07;;;;;;;1.75;0.80;;;17.70;70.30;;;;;;4425943;32;20067;-68
2023/01/08 07:23:33;;;;;;;1.27;0.70;;;17.60;70.20;;;;;;4430958;32;20058;-68
2023/01/08 07:26:01;;;;;;;1.90;0.93;;;17.60;70.20;;;;;;4431028;32;20082;-68
2023/01/08 07:28:27;;;;;;;1.73;0.88;;;17.60;70.20;;;;;;4431042;32;20071;-68
2023/01/08 07:30:53;;;;;;;1.38;0.65;;;17.60;70.20;;;;;;4430493;32;20094;-68
2023/01/08 07:33:20;;;;;;;1.30;0.75;;;17.60;70.20;;;;;;4426786;32;20129;-68
2023/01/08 07:35:52;;;;;;;1.00;0.60;;;17.60;70.20;;;;;;4430692;32;20071;-68
2023/01/08 07:38:18;;;;;;;1.65;0.93;;;17.60;71.10;;;;;;4430983;32;20085;-68
2023/01/08 07:40:45;;;;;;;0.80;0.60;;;17.60;70.20;;;;;;4430734;32;20118;-68
2023/01/08 07:43:14;;;;;;;1.42;0.60;;;17.60;70.20;;;;;;4430719;32;20066;-68
2023/01/08 07:45:40;;;;;;;1.52;0.93;;;17.60;70.20;;;;;;4430852;32;20083;-68
2023/01/08 07:48:09;;;;;;;1.13;0.50;;;17.60;70.20;;;;;;4430730;32;20511;-68
2023/01/08 07:50:44;;;;;;;1.63;0.70;;;17.50;70.20;;;;;;4430838;32;20208;-68
2023/01/08 07:53:12;;;;;;;1.25;0.70;;;17.60;70.20;;;;;;4430713;32;20100;-68
2023/01/08 07:55:38;;;;;;;1.67;0.80;;;17.60;70.20;;;;;;4430748;32;20513;-68
2023/01/08 07:58:12;;;;;;;1.58;0.70;;;17.50;70.20;;;;;;4430286;32;20090;-68
2023/01/08 08:00:39;;;;;;;1.73;0.90;;;17.50;70.10;;;;;;4430058;32;20078;-70
2023/01/08 08:03:06;;;;;;;1.80;0.60;;;17.50;70.10;;;;;;4430502;32;20543;-68
2023/01/08 08:05:32;;;;;;;1.38;0.73;;;17.50;70.10;;;;;;4430354;32;20244;-69
2023/01/08 08:07:58;;;;;;;1.40;0.80;;;17.50;70.10;;;;;;4437194;32;20097;-67
2023/01/08 08:10:24;;;;;;;2.05;0.70;;;17.60;70.20;;;;;;4434442;32;20067;-69
2023/01/08 08:12:50;;;;;;;5.25;0.70;;;17.60;70.10;;;;;;4430358;32;20085;-68
2023/01/08 08:15:16;;;;;;;1.08;0.60;;;17.70;70.00;;;;;;4430437;32;20078;-68
2023/01/08 08:17:46;;;;;;;0.80;0.63;;;17.80;69.80;;;;;;4430156;32;20078;-68
2023/01/08 08:20:12;;;;;;;1.77;0.80;;;17.90;69.60;;;;;;4430217;32;20082;-68
2023/01/08 08:22:38;;;;;;;2.15;0.98;;;18.00;69.10;;;;;;4430302;32;20085;-69
2023/01/08 08:25:10;;;;;;;2.28;0.70;;;18.20;68.80;;;;;;4417175;32;20079;-68
2023/01/08 08:27:38;;;;;;;2.33;0.80;;;18.30;68.40;;;;;;4429937;32;20090;-68
2023/01/08 08:30:04;;;;;;;1.70;0.93;;;18.40;68.00;;;;;;4430009;32;20071;-68
2023/01/08 08:32:30;;;;;;;1.75;0.60;;;18.60;67.60;;;;;;4430030;32;20595;-69
2023/01/08 08:34:55;;;;;;;1.48;0.70;;;18.70;67.20;;;;;;4430172;32;20082;-68
2023/01/08 08:37:21;;;;;;;1.55;0.50;;;18.90;66.90;;;;;;4430132;32;20118;-69
2023/01/08 08:39:47;;;;;;;0.90;0.50;;;19.00;66.50;;;;;;4429707;32;20070;-68
2023/01/08 08:42:15;;;;;;;1.17;0.70;;;19.10;66.30;;;;;;4430085;32;20082;-68
2023/01/08 08:44:41;;;;;;;1.38;0.60;;;19.20;65.90;;;;;;4429722;32;20417;-68
2023/01/08 08:47:08;;;;;;;2.95;0.70;;;19.30;65.80;;;;;;4429718;32;20220;-69
2023/01/08 08:49:35;;;;;;;3.85;0.60;;;19.40;65.70;;;;;;4429892;32;20089;-69
2023/01/08 08:52:01;;;;;;;1.35;0.63;;;19.40;65.60;;;;;;4429762;32;20078;-67
2023/01/08 08:54:27;;;;;;;1.30;0.50;;;19.40;65.50;;;;;;4433305;32;20070;-69
2023/01/08 08:56:53;;;;;;;0.95;0.50;;;19.40;65.40;;;;;;4433051;32;20152;-69
2023/01/08 08:59:20;;;;;;;1.38;0.60;;;19.40;65.50;;;;;;4429502;32;20074;-72
2023/01/08 09:01:46;;;;;;;3.70;0.60;;;19.40;65.50;;;;;;4429459;32;20503;-69
2023/01/08 09:04:12;;;;;;;2.20;0.55;;;19.40;65.50;;;;;;4429466;32;20122;-68
2023/01/08 09:06:38;;;;;;;1.13;0.70;;;19.50;65.50;;;;;;4429741;32;20074;-69
2023/01/08 09:09:04;;;;;;;2.28;0.80;;;19.50;65.50;;;;;;4429400;32;20184;-69
2023/01/08 09:11:38;;;;;;;0.90;0.43;;;19.50;65.50;;;;;;4416836;32;20244;-69
2023/01/08 09:14:04;;;;;;;1.50;0.60;;;19.50;65.50;;;;;;4429460;32;20584;-69
2023/01/08 09:16:31;;;;;;;3.67;0.70;;;19.50;65.40;;;;;;4429577;32;20078;-68
2023/01/08 09:19:03;;;;;;;0.90;0.47;;;19.50;65.40;;;;;;4424669;32;20106;-68
2023/01/08 09:21:29;;;;;;;1.95;0.45;;;19.50;65.40;;;;;;4419789;32;20098;-69
2023/01/08 09:23:55;;;;;;;1.33;0.68;;;19.50;65.40;;;;;;4428068;32;20081;-69
2023/01/08 09:26:21;;;;;;;2.50;0.47;;;19.50;65.40;;;;;;4427180;32;20524;-69
2023/01/08 09:28:48;;;;;;;1.00;0.63;;;19.60;65.40;;;;;;4424721;32;20075;-69
2023/01/08 09:31:14;;;;;;;0.60;0.38;;;19.50;66.20;;;;;;4427485;32;20229;-68
2023/01/08 09:33:47;;;;;;;1.05;0.50;;;19.60;65.50;;;;;;4429178;32;20491;-69
2023/01/08 09:36:14;;;;;;;1.60;0.50;;;19.50;65.40;;;;;;4429105;32;20168;-69
2023/01/08 09:38:40;;;;;;;1.67;0.60;;;19.60;65.50;;;;;;4429111;32;20572;-69
2023/01/08 09:41:15;;;;;;;1.95;0.47;;;19.50;65.50;;;;;;4429099;32;20081;-69
2023/01/08 09:43:43;;;;;;;1.25;0.43;;;19.50;65.50;;;;;;4429104;32;20563;-69
2023/01/08 09:46:11;;;;;;;1.92;0.63;;;19.50;65.60;;;;;;4429274;32;20066;-69
2023/01/08 09:48:40;;;;;;;1.88;0.47;;;19.50;65.70;;;;;;4429009;32;20220;-68
2023/01/08 09:51:14;;;;;;;0.98;0.45;;;19.50;65.90;;;;;;4429350;32;20086;-68
2023/01/08 09:53:41;;;;;;;2.25;0.90;;;19.60;65.90;;;;;;4415225;32;20134;-68
2023/01/08 09:56:16;;;;;;;2.40;0.60;;;19.60;66.00;;;;;;4429262;32;20235;-68
2023/01/08 09:58:49;;;;;;;2.88;0.88;;;19.60;66.00;;;;;;4428930;32;20117;-68
2023/01/08 10:01:19;;;;;;;1.40;0.50;;;19.60;66.00;;;;;;4428334;32;20629;-69
2023/01/08 10:03:47;;;;;;;1.95;0.60;;;19.60;66.00;;;;;;4428638;32;20093;-69
2023/01/08 10:06:15;;;;;;;2.10;0.70;;;19.60;66.00;;;;;;4426379;32;20260;-68
2023/01/08 10:08:41;;;;;;;2.53;0.85;;;19.60;66.00;;;;;;4414222;32;20240;-68
2023/01/08 10:11:08;;;;;;;2.35;0.50;;;19.70;66.10;;;;;;4414924;32;20075;-68
2023/01/08 10:13:37;;;;;;;1.60;0.60;;;19.60;66.10;;;;;;4413494;32;20090;-68
2023/01/08 10:16:09;;;;;;;3.92;0.80;;;19.70;66.20;;;;;;4415806;32;20081;-69
2023/01/08 10:18:36;;;;;;;1.33;0.60;;;19.60;66.20;;;;;;4415754;32;20500;-69
2023/01/08 10:21:03;;;;;;;1.60;0.65;;;19.60;66.30;;;;;;4404300;32;20146;-69
2023/01/08 10:23:29;;;;;;;2.58;0.68;;;19.60;66.30;;;;;;4416767;32;20063;-68
2023/01/08 10:26:01;;;;;;;1.52;0.80;;;19.60;66.30;;;;;;4417163;32;20141;-68
2023/01/08 10:28:34;;;;;;;2.42;0.60;;;19.60;66.30;;;;;;4416316;32;20192;-69
2023/01/08 10:31:06;;;;;;;1.58;0.60;;;19.60;66.30;;;;;;4415998;32;20086;-69
2023/01/08 10:33:46;;;;;;;3.35;0.90;;;19.60;66.40;;;;;;4417990;32;20082;-68
2023/01/08 10:36:15;;;;;;;3.60;0.68;;;19.60;66.40;;;;;;4419145;32;20232;-69
2023/01/08 10:38:59;;;;;;;6.00;0.60;;;19.60;66.40;;;;;;4404785;32;20228;-69
2023/01/08 10:41:26;;;;;;;2.13;0.73;;;19.60;66.40;;;;;;4421446;32;20082;-68
2023/01/08 10:43:57;;;;;;;1.25;0.43;;;19.60;66.40;;;;;;4419248;32;20091;-68
2023/01/08 10:46:39;;;;;;;2.70;0.60;;;19.60;66.40;;;;;;4417151;32;20424;-68
2023/01/08 10:49:42;;;;;;;1.38;0.40;;;19.60;66.50;;;;;;4417058;32;20102;-68
2023/01/08 10:52:31;;;;;;;2.47;0.95;;;19.60;66.50;;;;;;4415296;32;20394;-69
2023/01/08 10:55:12;;;;;;;1.27;0.50;;;19.60;66.60;;;;;;4424984;32;20540;-69
2023/01/08 10:57:57;;;;;;;2.55;0.60;;;19.60;66.60;;;;;;4423932;32;20145;-69
2023/01/08 11:00:32;;;;;;;1.30;0.50;;;19.60;66.60;;;;;;4420595;32;20119;-69
2023/01/08 11:03:07;;;;;;;2.55;0.55;;;19.60;66.70;;;;;;4418516;32;20090;-68
2023/01/08 11:05:36;;;;;;;1.98;0.60;;;19.60;66.70;;;;;;4431069;32;20160;-68
2023/01/08 11:08:07;;;;;;;0.77;0.47;;;19.60;66.80;;;;;;4431098;32;20504;-68
2023/01/08 11:10:35;;;;;;;1.70;0.60;;;19.60;66.90;;;;;;4428205;32;20185;-68
2023/01/08 11:13:06;;;;;;;1.50;0.60;;;19.60;66.90;;;;;;4420591;32;20162;-69
2023/01/08 11:15:36;;;;;;;3.08;0.50;;;19.60;66.90;;;;;;4430869;32;20093;-69
2023/01/08 11:18:20;;;;;;;2.13;0.60;;;19.60;66.90;;;;;;4430452;32;20595;-68
2023/01/08 11:20:48;;;;;;;2.55;0.73;;;19.60;66.90;;;;;;4430408;32;20299;-69
2023/01/08 11:23:23;;;;;;;2.88;0.68;;;19.60;66.90;;;;;;4430607;32;20130;-68
2023/01/08 11:26:00;;;;;;;2.75;0.70;;;19.50;66.90;;;;;;4430552;32;20082;-69
2023/01/08 11:28:36;;;;;;;2.97;1.00;;;19.60;66.90;;;;;;4430889;32;20127;-69
2023/01/08 11:31:15;;;;;;;1.85;0.60;;;19.60;66.90;;;;;;4429570;32;20499;-69
2023/01/08 11:33:43;;;;;;;1.10;0.50;;;19.60;66.90;;;;;;4430304;32;20078;-69
2023/01/08 11:36:19;;;;;;;1.27;0.50;;;19.60;66.90;;;;;;4430897;32;20173;-69
2023/01/08 11:38:45;;;;;;;2.58;0.95;;;19.60;66.80;;;;;;4431211;32;20220;-69
2023/01/08 11:41:23;;;;;;;3.38;0.52;;;19.60;66.60;;;;;;4430763;32;20066;-68
2023/01/08 11:44:02;;;;;;;1.25;0.60;;;19.60;66.60;;;;;;4430859;32;20223;-69
2023/01/08 11:46:44;;;;;;;2.10;0.73;;;19.70;66.50;;;;;;4431115;32;20089;-69
2023/01/08 11:49:26;;;;;;;5.28;1.45;;;19.70;66.40;;;;;;4431122;32;20094;-68
2023/01/08 11:51:55;;;;;;;10.40;2.72;;;19.70;66.30;;;;;;4430909;32;20080;-69
2023/01/08 11:54:36;;;;;;;25.20;6.10;;;19.70;66.20;;;;;;4431148;32;20122;-69
2023/01/08 11:57:21;;;;;;;15.93;4.82;;;19.70;66.20;;;;;;4416859;32;20078;-68
2023/01/08 12:00:02;;;;;;;22.08;6.22;;;19.70;66.10;;;;;;4430505;32;20156;-69
2023/01/08 12:02:49;;;;;;;16.60;5.35;;;19.70;66.10;;;;;;4430434;32;20082;-69
2023/01/08 12:06:00;;;;;;;16.75;5.00;;;19.70;65.80;;;;;;4418448;32;20516;-69
2023/01/08 12:09:07;;;;;;;15.50;4.15;;;19.60;65.40;;;;;;4419737;32;20431;-69
2023/01/08 12:12:02;;;;;;;12.32;4.10;;;19.60;65.10;;;;;;4419175;32;20138;-69
2023/01/08 12:14:56;;;;;;;13.32;4.22;;;19.60;64.80;;;;;;4418190;32;20405;-69
2023/01/08 12:17:57;;;;;;;;;;;19.60;64.70;;;;;;4419345;32;20192;-69
2023/01/08 12:20:53;;;;;;;14.60;4.25;;;19.60;64.90;;;;;;4416429;32;20030;-69
2023/01/08 12:23:46;;;;;;;10.57;3.67;;;19.60;64.60;;;;;;4428446;32;20112;-68
2023/01/08 12:26:31;;;;;;;13.98;3.63;;;19.70;64.70;;;;;;4429894;32;20102;-69
2023/01/08 12:29:35;;;;;;;11.88;3.63;;;19.70;64.60;;;;;;4429094;32;20101;-69
2023/01/08 12:32:25;;;;;;;13.40;3.65;;;19.70;64.50;;;;;;4415918;32;20086;-68
2023/01/08 12:35:03;;;;;;;10.18;3.08;;;19.70;64.50;;;;;;4429633;32;20504;-68
2023/01/08 12:37:33;;;;;;;8.57;3.00;;;19.70;64.50;;;;;;4429721;32;20124;-68
2023/01/08 12:40:16;;;;;;;8.90;3.05;;;19.70;64.50;;;;;;4429382;32;20142;-68
2023/01/08 12:42:44;;;;;;;10.63;3.00;;;19.70;64.50;;;;;;4429572;32;20082;-69
2023/01/08 12:45:43;;;;;;;9.40;2.90;;;19.70;64.50;;;;;;4428646;32;20149;-69
2023/01/08 12:48:18;;;;;;;6.70;2.55;;;19.70;64.60;;;;;;4428648;32;20086;-69
2023/01/08 12:50:51;;;;;;;8.90;2.88;;;19.70;64.60;;;;;;4425781;32;20054;-68
2023/01/08 12:53:54;;;;;;;10.45;2.90;;;19.70;64.60;;;;;;4429686;32;20082;-68
2023/01/08 12:56:39;;;;;;;10.25;2.85;;;19.70;64.70;;;;;;4416132;32;20087;-69
2023/01/08 12:59:26;;;;;;;10.63;2.72;;;19.70;64.70;;;;;;4418755;32;20418;-69
2023/01/08 13:02:03;;;;;;;17.48;2.75;;;19.70;64.80;;;;;;4425957;32;20109;-69
2023/01/08 13:04:44;;;;;;;8.63;2.53;;;19.70;64.70;;;;;;4425231;32;20166;-69
2023/01/08 13:07:23;;;;;;;6.80;2.40;;;19.70;64.60;;;;;;4422925;32;20126;-69
2023/01/08 13:10:18;;;;;;;8.98;2.38;;;19.70;64.70;;;;;;4423009;32;20106;-69